createdAt,value
2018-03-24T00:01:03.303Z,17.37
2018-03-24T00:03:30.825Z,18.50
2018-03-24T00:05:58.288Z,18.27
2018-03-24T00:08:26.554Z,18.15
2018-03-24T00:10:54.774Z,16.65
2018-03-24T00:13:22.295Z,18.58
2018-03-24T00:15:50.542Z,16.87
2018-03-24T00:18:18.034Z,18.02
2018-03-24T00:20:46.274Z,18.55
2018-03-24T00:23:13.775Z,19.87
2018-03-24T00:25:42.000Z,18.50
2018-03-24T00:28:09.535Z,18.00
2018-03-24T00:30:37.007Z,17.33
2018-03-24T00:33:04.476Z,18.45
2018-03-24T00:35:31.984Z,18.25
2018-03-24T00:38:00.228Z,17.77
2018-03-24T00:40:27.770Z,17.05
2018-03-24T00:42:55.956Z,17.08
2018-03-24T00:45:23.437Z,17.10
2018-03-24T00:47:50.926Z,17.62
2018-03-24T00:50:18.396Z,17.55
2018-03-24T00:52:45.894Z,17.42
2018-03-24T00:55:13.382Z,16.95
2018-03-24T00:57:41.697Z,19.15
2018-03-24T01:00:09.165Z,17.87
2018-03-24T01:02:36.695Z,16.77
2018-03-24T01:05:04.930Z,18.67
2018-03-24T01:07:33.987Z,18.98
2018-03-24T01:10:01.446Z,17.83
2018-03-24T01:12:28.917Z,17.20
2018-03-24T01:14:56.415Z,18.05
2018-03-24T01:17:23.886Z,19.05
2018-03-24T01:19:52.142Z,20.40
2018-03-24T01:22:19.636Z,20.98
2018-03-24T01:24:47.105Z,20.98
2018-03-24T01:27:14.603Z,21.42
2018-03-24T01:29:42.095Z,23.92
2018-03-24T01:32:10.342Z,23.73
2018-03-24T01:34:37.798Z,22.77
2018-03-24T01:37:05.310Z,22.90
2018-03-24T01:39:32.782Z,23.10
2018-03-24T01:42:00.274Z,20.88
2018-03-24T01:44:27.775Z,21.15
2018-03-24T01:46:55.997Z,21.80
2018-03-24T01:49:23.492Z,20.98
2018-03-24T01:51:50.964Z,24.77
2018-03-24T01:54:19.217Z,22.23
2018-03-24T01:56:46.691Z,23.87
2018-03-24T01:59:14.942Z,21.60
2018-03-24T02:01:42.403Z,23.85
2018-03-24T02:04:09.915Z,23.60
2018-03-24T02:06:37.389Z,20.75
2018-03-24T02:09:04.883Z,21.50
2018-03-24T02:11:32.348Z,21.87
2018-03-24T02:14:00.604Z,21.42
2018-03-24T02:16:28.106Z,21.87
2018-03-24T02:18:56.369Z,21.70
2018-03-24T02:21:24.615Z,21.10
2018-03-24T02:23:52.114Z,22.02
2018-03-24T02:26:20.456Z,20.98
2018-03-24T02:28:47.925Z,23.58
2018-03-24T02:31:15.394Z,20.00
2018-03-24T02:33:43.679Z,20.67
2018-03-24T02:36:11.938Z,22.65
2018-03-24T02:38:39.425Z,20.25
2018-03-24T02:41:07.005Z,20.05
2018-03-24T02:43:34.477Z,22.10
2018-03-24T02:46:01.991Z,21.87
2018-03-24T02:48:30.252Z,21.27
2018-03-24T02:50:57.727Z,19.77
2018-03-24T02:53:25.982Z,20.30
2018-03-24T02:55:53.516Z,19.67
2018-03-24T02:58:21.018Z,20.58
2018-03-24T03:00:49.286Z,20.83
2018-03-24T03:03:16.741Z,21.70
2018-03-24T03:05:44.234Z,21.92
2018-03-24T03:08:11.716Z,24.10
2018-03-24T03:10:39.227Z,21.62
2018-03-24T03:13:07.470Z,20.60
2018-03-24T03:15:34.974Z,21.65
2018-03-24T03:18:03.211Z,21.10
2018-03-24T03:20:30.711Z,22.77
2018-03-24T03:22:58.958Z,25.08
2018-03-24T03:25:26.512Z,19.85
2018-03-24T03:27:54.017Z,20.23
2018-03-24T03:30:32.261Z,19.45
2018-03-24T03:32:59.746Z,20.73
2018-03-24T03:35:27.206Z,18.85
2018-03-24T03:37:54.718Z,20.02
2018-03-24T03:40:22.203Z,16.85
2018-03-24T03:42:49.695Z,18.70
2018-03-24T03:45:17.169Z,18.17
2018-03-24T03:47:45.419Z,18.85
2018-03-24T03:50:12.891Z,17.15
2018-03-24T03:52:41.163Z,17.98
2018-03-24T03:55:08.633Z,18.62
2018-03-24T03:57:36.903Z,15.75
2018-03-24T04:00:05.138Z,17.75
2018-03-24T04:02:32.626Z,17.55
2018-03-24T04:05:00.117Z,15.90
2018-03-24T04:07:27.585Z,15.45
2018-03-24T04:09:55.102Z,18.33
2018-03-24T04:12:22.561Z,17.12
2018-03-24T04:14:50.042Z,17.30
2018-03-24T04:17:18.278Z,16.08
2018-03-24T04:19:45.773Z,14.55
2018-03-24T04:22:14.009Z,13.23
2018-03-24T04:24:41.510Z,15.73
2018-03-24T04:27:09.755Z,14.02
2018-03-24T04:29:37.241Z,13.10
2018-03-24T04:32:05.507Z,13.93
2018-03-24T04:34:32.966Z,14.40
2018-03-24T04:37:01.216Z,14.27
2018-03-24T04:39:28.686Z,16.08
2018-03-24T04:41:56.187Z,15.10
2018-03-24T04:44:23.681Z,15.05
2018-03-24T04:46:51.166Z,15.75
2018-03-24T04:49:18.629Z,14.50
2018-03-24T04:51:46.138Z,15.45
2018-03-24T04:54:13.598Z,15.43
2018-03-24T04:56:41.105Z,14.77
2018-03-24T04:59:08.570Z,14.48
2018-03-24T05:01:36.881Z,14.68
2018-03-24T05:04:04.357Z,16.00
2018-03-24T05:06:32.475Z,15.40
2018-03-24T05:08:59.975Z,15.38
2018-03-24T05:11:27.454Z,17.95
2018-03-24T05:13:54.935Z,16.40
2018-03-24T05:16:22.435Z,16.30
2018-03-24T05:18:49.910Z,16.12
2018-03-24T05:21:17.382Z,16.00
2018-03-24T05:23:44.882Z,15.52
2018-03-24T05:26:12.410Z,16.75
2018-03-24T05:28:40.636Z,17.58
2018-03-24T05:31:08.863Z,16.77
2018-03-24T05:33:36.350Z,17.20
2018-03-24T05:36:03.822Z,18.27
2018-03-24T05:38:32.082Z,18.48
2018-03-24T05:40:59.546Z,20.65
2018-03-24T05:43:27.026Z,20.58
2018-03-24T05:45:55.299Z,18.67
2018-03-24T05:48:23.538Z,20.02
2018-03-24T05:50:51.037Z,18.10
2018-03-24T05:53:19.266Z,19.17
2018-03-24T05:55:46.754Z,16.12
2018-03-24T05:58:14.246Z,16.85
2018-03-24T06:00:41.747Z,17.77
2018-03-24T06:03:09.224Z,16.30
2018-03-24T06:05:36.747Z,16.00
2018-03-24T06:08:04.293Z,15.82
2018-03-24T06:10:31.802Z,14.85
2018-03-24T06:12:59.256Z,15.60
2018-03-24T06:15:26.769Z,16.83
2018-03-24T06:17:54.240Z,17.62
2018-03-24T06:20:21.785Z,17.60
2018-03-24T06:22:49.279Z,21.05
2018-03-24T06:25:16.755Z,18.48
2018-03-24T06:27:44.258Z,18.08
2018-03-24T06:30:15.189Z,20.83
2018-03-24T06:32:42.694Z,21.40
2018-03-24T06:35:10.190Z,23.20
2018-03-24T06:37:38.450Z,22.27
2018-03-24T06:40:05.931Z,25.45
2018-03-24T06:42:34.210Z,24.00
2018-03-24T06:45:02.482Z,24.15
2018-03-24T06:47:30.777Z,25.50
2018-03-24T06:49:58.289Z,29.02
2018-03-24T06:52:25.815Z,28.27
2018-03-24T06:54:53.796Z,33.35
2018-03-24T06:57:21.299Z,31.48
2018-03-24T06:59:49.576Z,30.52
2018-03-24T07:02:17.846Z,33.00
2018-03-24T07:04:45.336Z,33.90
2018-03-24T07:07:12.819Z,35.87
2018-03-24T07:09:40.302Z,37.55
2018-03-24T07:12:07.789Z,38.40
2018-03-24T07:14:36.054Z,33.17
2018-03-24T07:17:03.536Z,34.75
2018-03-24T07:19:31.797Z,31.50
2018-03-24T07:22:00.062Z,32.85
2018-03-24T07:24:29.052Z,31.15
2018-03-24T07:26:56.547Z,31.83
2018-03-24T07:29:24.810Z,30.02
2018-03-24T07:31:53.062Z,32.58
2018-03-24T07:34:20.563Z,33.67
2018-03-24T07:36:48.078Z,30.20
2018-03-24T07:39:15.575Z,30.60
2018-03-24T07:41:43.116Z,30.95
2018-03-24T07:44:11.345Z,31.40
2018-03-24T07:46:38.855Z,28.80
2018-03-24T07:49:07.120Z,27.48
2018-03-24T07:51:34.598Z,25.60
2018-03-24T07:54:02.843Z,26.52
2018-03-24T07:56:30.324Z,26.90
2018-03-24T07:58:58.604Z,29.02
2018-03-24T08:01:26.837Z,25.83
2018-03-24T08:03:54.334Z,26.73
2018-03-24T08:06:21.845Z,24.15
2018-03-24T08:08:49.339Z,23.38
2018-03-24T08:11:16.807Z,24.75
2018-03-24T08:13:45.076Z,22.65
2018-03-24T08:16:12.557Z,22.98
2018-03-24T08:18:40.082Z,21.37
2018-03-24T08:21:07.570Z,20.60
2018-03-24T08:23:35.067Z,20.20
2018-03-24T08:26:02.557Z,18.87
2018-03-24T08:28:30.047Z,19.55
2018-03-24T08:30:58.294Z,20.35
2018-03-24T08:33:25.808Z,20.20
2018-03-24T08:35:53.322Z,18.52
2018-03-24T08:38:20.841Z,16.67
2018-03-24T08:40:48.350Z,17.58
2018-03-24T08:43:16.591Z,18.85
2018-03-24T08:45:44.124Z,18.35
2018-03-24T08:48:11.597Z,15.55
2018-03-24T08:50:39.108Z,16.62
2018-03-24T08:53:07.347Z,16.52
2018-03-24T08:55:34.828Z,15.50
2018-03-24T08:58:02.359Z,15.30
2018-03-24T09:00:29.874Z,14.02
2018-03-24T09:02:57.343Z,13.32
2018-03-24T09:05:24.845Z,13.60
2018-03-24T09:07:52.367Z,14.40
2018-03-24T09:10:19.847Z,12.63
2018-03-24T09:12:47.350Z,12.88
2018-03-24T09:15:14.819Z,13.48
2018-03-24T09:17:43.110Z,14.43
2018-03-24T09:20:10.614Z,13.35
2018-03-24T09:22:38.127Z,12.43
2018-03-24T09:25:06.354Z,13.18
2018-03-24T09:27:33.866Z,12.45
2018-03-24T09:30:01.346Z,13.90
2018-03-24T09:32:28.824Z,13.38
2018-03-24T09:34:56.323Z,11.50
2018-03-24T09:37:24.551Z,12.13
2018-03-24T09:39:52.052Z,10.52
2018-03-24T09:42:19.559Z,11.57
2018-03-24T09:44:47.067Z,12.00
2018-03-24T09:47:15.319Z,11.52
2018-03-24T09:49:42.842Z,11.50
2018-03-24T09:52:10.364Z,10.60
2018-03-24T09:54:37.831Z,10.10
2018-03-24T09:57:06.114Z,11.07
2018-03-24T09:59:34.412Z,8.30
2018-03-24T10:02:02.667Z,10.82
2018-03-24T10:04:30.135Z,10.18
2018-03-24T10:06:57.675Z,11.12
2018-03-24T10:09:25.949Z,9.52
2018-03-24T10:11:54.229Z,9.55
2018-03-24T10:14:22.495Z,8.02
2018-03-24T10:16:50.017Z,8.40
2018-03-24T10:19:17.476Z,8.88
2018-03-24T10:24:48.864Z,7.53
2018-03-24T10:27:16.418Z,8.95
2018-03-24T10:29:43.904Z,9.47
2018-03-24T10:32:11.378Z,8.77
2018-03-24T10:34:39.632Z,6.70
2018-03-24T10:37:07.118Z,6.80
2018-03-24T10:39:35.350Z,4.40
2018-03-24T10:42:02.872Z,6.62
2018-03-24T10:44:30.323Z,8.52
2018-03-24T10:46:57.827Z,9.32
2018-03-24T10:49:25.298Z,8.38
2018-03-24T10:51:53.583Z,8.68
2018-03-24T10:54:21.106Z,10.20
2018-03-24T10:56:48.626Z,8.90
2018-03-24T10:59:16.874Z,7.37
2018-03-24T11:01:44.393Z,6.78
2018-03-24T11:04:11.888Z,7.95
2018-03-24T11:06:39.399Z,8.05
2018-03-24T11:09:06.895Z,8.55
2018-03-24T11:11:34.420Z,7.62
2018-03-24T11:14:01.936Z,7.25
2018-03-24T11:16:29.437Z,8.60
2018-03-24T11:18:56.937Z,9.25
2018-03-24T11:21:24.426Z,9.30
2018-03-24T11:23:52.696Z,8.38
2018-03-24T11:26:20.949Z,10.50
2018-03-24T11:28:48.433Z,10.10
2018-03-24T11:31:16.719Z,11.63
2018-03-24T11:33:44.247Z,10.75
2018-03-24T11:36:11.759Z,11.95
2018-03-24T11:38:39.230Z,10.63
2018-03-24T11:41:06.759Z,11.10
2018-03-24T11:43:34.282Z,12.35
2018-03-24T11:46:01.790Z,10.80
2018-03-24T11:48:29.270Z,12.55
2018-03-24T11:50:56.797Z,12.27
2018-03-24T11:53:36.322Z,11.63
2018-03-24T11:56:04.619Z,12.60
2018-03-24T11:58:32.120Z,11.45
2018-03-24T12:00:59.648Z,12.32
2018-03-24T12:03:27.141Z,12.97
2018-03-24T12:05:54.647Z,12.98
2018-03-24T12:08:22.197Z,13.20
2018-03-24T12:10:49.675Z,13.07
2018-03-24T12:13:17.199Z,13.68
2018-03-24T12:15:44.674Z,13.15
2018-03-24T12:18:12.935Z,11.15
2018-03-24T12:20:41.193Z,11.82
2018-03-24T12:23:08.701Z,11.90
2018-03-24T12:25:36.190Z,13.20
2018-03-24T12:28:03.675Z,13.93
2018-03-24T12:30:31.196Z,13.52
2018-03-24T12:32:58.740Z,12.25
2018-03-24T12:35:26.976Z,13.32
2018-03-24T12:37:54.503Z,13.20
2018-03-24T12:40:22.026Z,13.02
2018-03-24T12:42:50.278Z,13.02
2018-03-24T12:45:17.771Z,13.00
2018-03-24T12:47:45.278Z,12.48
2018-03-24T12:50:12.779Z,14.15
2018-03-24T12:52:41.077Z,14.60
2018-03-24T12:55:08.565Z,13.38
2018-03-24T12:57:36.066Z,17.00
2018-03-24T13:00:04.328Z,11.85
2018-03-24T13:02:31.835Z,12.52
2018-03-24T13:04:59.326Z,12.23
2018-03-24T13:07:26.826Z,11.10
2018-03-24T13:09:54.316Z,9.90
2018-03-24T13:12:21.834Z,13.13
2018-03-24T13:14:50.079Z,12.55
2018-03-24T13:17:17.583Z,10.38
2018-03-24T13:19:45.078Z,10.88
2018-03-24T13:22:12.553Z,12.18
2018-03-24T13:24:40.067Z,11.43
2018-03-24T13:27:07.568Z,11.45
2018-03-24T13:29:35.094Z,12.25
2018-03-24T13:32:02.595Z,11.35
2018-03-24T13:34:30.118Z,11.23
2018-03-24T13:36:57.582Z,11.25
2018-03-24T13:39:25.096Z,10.30
2018-03-24T13:41:53.370Z,11.07
2018-03-24T13:44:21.676Z,11.82
2018-03-24T13:46:49.164Z,12.35
2018-03-24T13:49:16.662Z,12.10
2018-03-24T13:51:44.935Z,11.00
2018-03-24T13:54:13.222Z,12.65
2018-03-24T13:56:41.499Z,10.77
2018-03-24T13:59:09.758Z,11.40
2018-03-24T14:01:37.293Z,11.90
2018-03-24T14:04:04.778Z,12.25
2018-03-24T14:06:32.302Z,11.10
2018-03-24T14:08:59.808Z,12.10
2018-03-24T14:11:28.090Z,11.80
2018-03-24T14:13:56.320Z,12.03
2018-03-24T14:16:23.858Z,12.60
2018-03-24T14:18:51.327Z,11.20
2018-03-24T14:21:18.847Z,11.65
2018-03-24T14:23:47.133Z,12.32
2018-03-24T14:26:15.409Z,12.20
2018-03-24T14:28:43.706Z,10.73
2018-03-24T14:31:11.216Z,11.53
2018-03-24T14:33:38.731Z,12.15
2018-03-24T14:36:06.229Z,13.65
2018-03-24T14:38:33.744Z,12.23
2018-03-24T14:41:01.221Z,12.07
2018-03-24T14:43:28.746Z,12.32
2018-03-24T14:45:56.236Z,12.43
2018-03-24T14:48:23.766Z,12.80
2018-03-24T14:50:51.285Z,10.98
2018-03-24T14:53:18.800Z,13.60
2018-03-24T14:55:46.306Z,11.40
2018-03-24T14:58:13.854Z,12.45
2018-03-24T15:00:41.388Z,11.97
2018-03-24T15:03:08.910Z,12.23
2018-03-24T15:05:37.216Z,12.50
2018-03-24T15:08:04.783Z,13.15
2018-03-24T15:10:32.329Z,12.48
2018-03-24T15:12:59.831Z,12.32
2018-03-24T15:15:27.394Z,13.10
2018-03-24T15:17:54.880Z,14.10
2018-03-24T15:20:23.167Z,12.90
2018-03-24T15:22:51.414Z,13.60
2018-03-24T15:25:18.978Z,14.87
2018-03-24T15:27:46.458Z,13.27
2018-03-24T15:30:26.056Z,13.80
2018-03-24T15:32:53.543Z,12.85
2018-03-24T15:35:34.387Z,14.07
2018-03-24T15:38:02.640Z,14.13
2018-03-24T15:40:30.143Z,12.93
2018-03-24T15:42:57.691Z,12.90
2018-03-24T15:45:25.237Z,13.35
2018-03-24T15:47:52.745Z,11.93
2018-03-24T15:50:20.997Z,13.62
2018-03-24T15:52:48.487Z,15.88
2018-03-24T15:55:15.990Z,12.77
2018-03-24T15:57:43.487Z,15.13
2018-03-24T16:00:11.028Z,12.95
2018-03-24T16:02:38.550Z,12.60
2018-03-24T16:05:06.051Z,15.07
2018-03-24T16:07:33.571Z,15.00
2018-03-24T16:10:01.099Z,13.88
2018-03-24T16:12:28.640Z,13.62
2018-03-24T16:14:56.150Z,12.63
2018-03-24T16:17:23.674Z,13.90
2018-03-24T16:19:51.907Z,14.13
2018-03-24T16:22:19.403Z,14.17
2018-03-24T16:24:47.682Z,13.88
2018-03-24T16:27:15.977Z,12.95
2018-03-24T16:29:43.516Z,13.45
2018-03-24T16:32:11.770Z,11.75
2018-03-24T16:34:39.299Z,13.20
2018-03-24T16:37:06.840Z,14.35
2018-03-24T16:39:34.417Z,13.95
2018-03-24T16:42:02.662Z,13.35
2018-03-24T16:44:30.516Z,14.00
2018-03-24T16:46:58.787Z,14.05
2018-03-24T16:49:27.088Z,12.85
2018-03-24T16:51:54.608Z,13.90
2018-03-24T16:54:22.146Z,13.88
2018-03-24T16:56:50.413Z,14.63
2018-03-24T16:59:17.964Z,13.73
2018-03-24T17:01:45.463Z,13.60
2018-03-24T17:04:13.020Z,14.82
2018-03-24T17:06:40.530Z,15.55
2018-03-24T17:09:08.055Z,13.77
2018-03-24T17:11:36.965Z,13.68
2018-03-24T17:14:05.196Z,14.23
2018-03-24T17:16:32.735Z,13.38
2018-03-24T17:19:00.211Z,13.60
2018-03-24T17:21:27.739Z,13.55
2018-03-24T17:23:55.243Z,15.20
2018-03-24T17:26:22.778Z,14.70
2018-03-24T17:28:50.302Z,14.35
2018-03-24T17:31:18.586Z,15.35
2018-03-24T17:33:46.758Z,15.55
2018-03-24T17:36:14.280Z,13.93
2018-03-24T17:38:41.767Z,14.20
2018-03-24T17:41:09.316Z,15.35
2018-03-24T17:43:37.563Z,14.75
2018-03-24T17:46:05.054Z,14.45
2018-03-24T17:48:33.346Z,14.25
2018-03-24T17:51:00.838Z,13.38
2018-03-24T17:53:28.339Z,13.90
2018-03-24T17:55:56.605Z,15.48
2018-03-24T17:58:24.119Z,16.00
2018-03-24T18:00:51.630Z,15.68
2018-03-24T18:03:19.154Z,16.15
2018-03-24T18:05:46.633Z,17.55
2018-03-24T18:08:14.147Z,17.50
2018-03-24T18:10:41.664Z,18.37
2018-03-24T18:13:09.188Z,16.73
2018-03-24T18:15:36.671Z,17.00
2018-03-24T18:18:04.206Z,17.77
2018-03-24T18:20:31.750Z,19.02
2018-03-24T18:22:59.999Z,18.70
2018-03-24T18:25:28.267Z,19.08
2018-03-24T18:27:56.539Z,17.75
2018-03-24T18:30:24.016Z,19.50
2018-03-24T18:32:51.526Z,18.48
2018-03-24T18:35:19.036Z,17.17
2018-03-24T18:37:47.291Z,19.23
2018-03-24T18:40:14.810Z,18.02
2018-03-24T18:42:42.320Z,19.25
2018-03-24T18:45:10.606Z,19.98
2018-03-24T18:47:38.859Z,17.05
2018-03-24T18:50:07.135Z,18.95
2018-03-24T18:52:34.607Z,22.00
2018-03-24T18:55:02.868Z,19.42
2018-03-24T18:57:30.348Z,21.87
2018-03-24T18:59:58.624Z,20.58
2018-03-24T19:02:26.887Z,19.58
2018-03-24T19:04:54.369Z,17.95
2018-03-24T19:07:22.666Z,16.83
2018-03-24T19:09:50.182Z,17.52
2018-03-24T19:12:17.681Z,16.70
2018-03-24T19:14:45.196Z,17.67
2018-03-24T19:17:12.710Z,16.80
2018-03-24T19:19:40.204Z,16.92
2018-03-24T19:22:07.721Z,18.33
2018-03-24T19:24:35.236Z,18.87
2018-03-24T19:27:02.765Z,17.83
2018-03-24T19:29:30.270Z,16.55
2018-03-24T19:31:58.546Z,22.33
2018-03-24T19:34:26.815Z,20.02
2018-03-24T19:36:55.097Z,21.20
2018-03-24T19:39:23.346Z,20.35
2018-03-24T19:41:50.834Z,20.90
2018-03-24T19:44:19.080Z,20.83
2018-03-24T19:46:46.604Z,20.83
2018-03-24T19:49:14.082Z,25.37
2018-03-24T19:51:42.540Z,24.33
2018-03-24T19:54:10.016Z,23.60
2018-03-24T19:56:37.529Z,21.02
2018-03-24T19:59:05.821Z,21.67
2018-03-24T20:01:34.086Z,22.27
2018-03-24T20:04:02.362Z,22.23
2018-03-24T20:06:30.607Z,21.67
2018-03-24T20:08:58.133Z,22.77
2018-03-24T20:11:25.631Z,23.58
2018-03-24T20:13:53.138Z,20.05
2018-03-24T20:16:20.609Z,20.92
2018-03-24T20:18:48.119Z,26.75
2018-03-24T20:21:16.393Z,25.75
2018-03-24T20:23:43.942Z,26.42
2018-03-24T20:26:11.414Z,23.40
2018-03-24T20:28:39.692Z,22.27
2018-03-24T20:31:07.238Z,24.02
2018-03-24T20:33:34.727Z,17.33
2018-03-24T20:36:03.010Z,16.87
2018-03-24T20:38:31.259Z,15.57
2018-03-24T20:40:58.802Z,15.02
2018-03-24T20:43:26.287Z,19.10
2018-03-24T20:45:53.768Z,16.87
2018-03-24T20:48:21.271Z,16.85
2018-03-24T20:50:48.786Z,16.17
2018-03-24T20:53:16.295Z,18.40
2018-03-24T20:55:43.805Z,17.08
2018-03-24T20:58:11.335Z,17.67
2018-03-24T21:00:38.847Z,16.65
2018-03-24T21:03:06.372Z,16.80
2018-03-24T21:05:34.616Z,16.60
2018-03-24T21:08:02.103Z,16.87
2018-03-24T21:10:30.414Z,20.77
2018-03-24T21:12:57.926Z,19.45
2018-03-24T21:15:25.436Z,19.30
2018-03-24T21:17:52.940Z,18.80
2018-03-24T21:20:20.430Z,21.77
2018-03-24T21:22:47.934Z,21.00
2018-03-24T21:25:15.436Z,20.67
2018-03-24T21:27:43.698Z,20.45
2018-03-24T21:30:11.969Z,20.65
2018-03-24T21:32:39.443Z,20.73
2018-03-24T21:35:07.727Z,19.10
2018-03-24T21:37:35.977Z,20.30
2018-03-24T21:40:03.487Z,19.90
2018-03-24T21:42:30.988Z,20.88
2018-03-24T21:44:58.483Z,19.80
2018-03-24T21:47:26.758Z,18.80
2018-03-24T21:49:55.042Z,18.62
2018-03-24T21:52:22.512Z,17.73
2018-03-24T21:54:50.028Z,16.37
2018-03-24T21:57:17.567Z,17.20
2018-03-24T21:59:45.047Z,18.12
2018-03-24T22:02:12.565Z,18.20
2018-03-24T22:04:40.072Z,16.80
2018-03-24T22:07:08.798Z,18.05
2018-03-24T22:09:36.302Z,18.95
2018-03-24T22:12:03.788Z,19.65
2018-03-24T22:14:32.057Z,18.45
2018-03-24T22:16:59.564Z,18.95
2018-03-24T22:19:27.062Z,16.87
2018-03-24T22:21:56.089Z,17.15
2018-03-24T22:24:24.367Z,19.80
2018-03-24T22:26:51.861Z,17.90
2018-03-24T22:29:19.344Z,16.87
2018-03-24T22:31:46.851Z,18.95
2018-03-24T22:34:14.326Z,17.67
2018-03-24T22:36:41.837Z,16.70
2018-03-24T22:39:09.298Z,17.92
2018-03-24T22:41:37.567Z,15.90
2018-03-24T22:44:05.047Z,15.93
2018-03-24T22:46:33.313Z,16.50
2018-03-24T22:49:01.565Z,16.23
2018-03-24T22:51:29.087Z,16.92
2018-03-24T22:53:56.611Z,17.00
2018-03-24T22:56:24.898Z,16.92
2018-03-24T22:58:53.148Z,18.90
2018-03-24T23:01:21.437Z,16.00
2018-03-24T23:03:49.717Z,16.23
2018-03-24T23:06:17.999Z,14.18
2018-03-24T23:08:46.286Z,15.30
2018-03-24T23:11:13.781Z,16.12
2018-03-24T23:13:41.307Z,16.10
2018-03-24T23:16:09.539Z,15.13
2018-03-24T23:18:37.045Z,15.23
2018-03-24T23:21:04.560Z,15.75
2018-03-24T23:23:32.072Z,16.80
2018-03-24T23:25:59.559Z,17.00
2018-03-24T23:28:27.073Z,17.48
2018-03-24T23:30:54.594Z,16.75
2018-03-24T23:33:22.089Z,15.63
2018-03-24T23:35:50.373Z,17.33
2018-03-24T23:38:17.837Z,17.60
2018-03-24T23:40:45.348Z,17.42
2018-03-24T23:43:12.830Z,18.17
2018-03-24T23:45:41.095Z,19.00
2018-03-24T23:48:08.606Z,17.70
2018-03-24T23:50:36.120Z,16.05
2018-03-24T23:53:03.602Z,15.95
2018-03-24T23:55:31.183Z,18.58
2018-03-24T23:57:58.662Z,17.30
